Airport View

Enter AWOS ICAO identifier for current METAR.

ex. KFNL

KOWP 221855Z AUTO 04016G21KT 10SM SCT041 29/17 A3011 RMK AO2 T02940166 PWINO

22 Jul 2019 19:03

Frequency: 118.325

Phone: 918-246-2635

Other Area AWOS: KRVS - KTUL - KOKM - KCUH

TAF AMD KRVS 221849Z 2219/2318 02013G22KT P6SM FEW029 BKN040 FM230100 03008KT P6SM SKC